createdAt,value
2022-10-23T00:03:50.285Z,12.36
2022-10-23T00:07:54.664Z,12.36
2022-10-23T00:11:56.592Z,12.36
2022-10-23T00:15:58.399Z,12.36
2022-10-23T00:20:00.745Z,12.38
2022-10-23T00:24:02.949Z,12.37
2022-10-23T00:28:04.902Z,12.38
2022-10-23T00:32:06.744Z,12.39
2022-10-23T00:36:11.456Z,12.38
2022-10-23T00:40:13.286Z,12.38
2022-10-23T00:44:18.097Z,12.41
2022-10-23T00:48:20.629Z,12.42
2022-10-23T00:52:22.469Z,12.44
2022-10-23T00:56:26.355Z,12.44
2022-10-23T01:00:40.460Z,12.47
2022-10-23T01:04:42.611Z,12.49
2022-10-23T01:08:56.506Z,12.50
2022-10-23T01:13:11.023Z,12.49
2022-10-23T01:17:44.511Z,12.49
2022-10-23T01:22:02.516Z,12.51
2022-10-23T01:26:26.204Z,12.49
2022-10-23T01:30:30.263Z,12.48
2022-10-23T01:34:50.330Z,12.49
2022-10-23T01:38:58.201Z,12.53
2022-10-23T01:43:25.401Z,12.52
2022-10-23T01:47:33.684Z,12.51
2022-10-23T01:51:43.759Z,12.52
2022-10-23T01:55:48.141Z,12.53
2022-10-23T02:00:05.951Z,12.53
2022-10-23T02:04:17.008Z,12.52
2022-10-23T02:08:19.012Z,12.49
2022-10-23T02:12:45.072Z,12.47
2022-10-23T02:17:03.376Z,12.45
2022-10-23T02:21:25.139Z,12.45
2022-10-23T02:25:43.877Z,12.45
2022-10-23T02:29:53.143Z,12.44
2022-10-23T02:33:55.529Z,12.43
2022-10-23T02:37:59.742Z,12.43
2022-10-23T02:42:05.338Z,12.44
2022-10-23T02:46:29.657Z,12.44
2022-10-23T02:50:41.333Z,12.46
2022-10-23T02:54:46.800Z,12.47
2022-10-23T02:59:05.533Z,12.48
2022-10-23T03:03:18.913Z,12.51
2022-10-23T03:07:21.527Z,12.54
2022-10-23T03:11:23.467Z,12.56
2022-10-23T03:15:25.346Z,12.56
2022-10-23T03:19:27.259Z,12.58
2022-10-23T03:23:31.337Z,12.58
2022-10-23T03:27:34.244Z,12.63
2022-10-23T03:31:38.542Z,12.61
2022-10-23T03:35:40.591Z,12.63
2022-10-23T03:39:42.960Z,12.66
2022-10-23T03:43:44.792Z,12.70
2022-10-23T03:47:46.609Z,12.74
2022-10-23T03:51:52.461Z,12.80
2022-10-23T03:55:55.819Z,12.83
2022-10-23T03:59:57.713Z,12.77
2022-10-23T04:04:03.549Z,12.73
2022-10-23T04:08:05.492Z,12.70
2022-10-23T04:12:08.908Z,12.66
2022-10-23T04:16:10.772Z,12.66
2022-10-23T04:20:12.768Z,12.65
2022-10-23T04:24:14.596Z,12.65
2022-10-23T04:28:16.479Z,12.66
2022-10-23T04:32:18.278Z,12.64
2022-10-23T04:36:20.217Z,12.64
2022-10-23T04:40:22.097Z,12.65
2022-10-23T04:44:26.168Z,12.57
2022-10-23T04:48:29.188Z,12.52
2022-10-23T04:52:57.847Z,12.55
2022-10-23T04:57:19.972Z,12.56
2022-10-23T05:01:30.227Z,12.57
2022-10-23T05:05:32.650Z,12.58
2022-10-23T05:09:42.455Z,12.59
2022-10-23T05:13:55.858Z,12.61
2022-10-23T05:18:13.891Z,12.64
2022-10-23T05:22:17.868Z,12.61
2022-10-23T05:26:28.925Z,12.53
2022-10-23T05:30:32.602Z,12.50
2022-10-23T05:34:37.931Z,12.48
2022-10-23T05:38:40.314Z,12.49
2022-10-23T05:42:49.178Z,12.52
2022-10-23T05:46:55.581Z,12.51
2022-10-23T05:51:38.743Z,12.53
2022-10-23T05:56:04.272Z,12.56
2022-10-23T06:00:18.139Z,12.64
2022-10-23T06:04:28.400Z,12.70
2022-10-23T06:08:51.435Z,12.70
2022-10-23T06:12:55.326Z,12.70
2022-10-23T06:16:57.271Z,12.69
2022-10-23T06:21:01.180Z,12.67
2022-10-23T06:25:04.091Z,12.64
2022-10-23T06:29:06.761Z,12.65
2022-10-23T06:33:08.638Z,12.70
2022-10-23T06:37:10.790Z,12.74
2022-10-23T06:41:20.300Z,12.74
2022-10-23T06:45:29.593Z,12.70
2022-10-23T06:49:57.389Z,12.67
2022-10-23T06:53:59.401Z,12.62
2022-10-23T06:58:30.868Z,12.59
2022-10-23T07:02:36.968Z,12.60
2022-10-23T07:06:38.993Z,12.58
2022-10-23T07:10:44.830Z,12.62
2022-10-23T07:14:47.246Z,12.67
2022-10-23T07:19:00.573Z,12.73
2022-10-23T07:23:02.450Z,12.84
2022-10-23T07:27:10.280Z,12.93
2022-10-23T07:31:16.068Z,12.97
2022-10-23T07:35:41.272Z,13.03
2022-10-23T07:39:48.881Z,13.15
2022-10-23T07:43:50.749Z,13.27
2022-10-23T07:47:52.682Z,13.32
2022-10-23T07:51:58.273Z,13.39
2022-10-23T07:56:12.191Z,13.48
2022-10-23T08:00:34.065Z,13.55
2022-10-23T08:04:43.230Z,13.64
2022-10-23T08:09:08.097Z,13.75
2022-10-23T08:13:13.707Z,13.83
2022-10-23T08:17:28.265Z,13.93
2022-10-23T08:21:56.834Z,13.99
2022-10-23T08:26:00.794Z,14.08
2022-10-23T08:30:05.139Z,14.17
2022-10-23T08:34:07.166Z,14.23
2022-10-23T08:38:10.757Z,14.39
2022-10-23T08:42:22.819Z,14.54
2022-10-23T08:46:28.139Z,14.59
2022-10-23T08:51:05.811Z,14.63
2022-10-23T08:55:26.118Z,14.66
2022-10-23T08:59:40.008Z,14.75
2022-10-23T09:03:43.200Z,14.80
2022-10-23T09:07:53.993Z,14.81
2022-10-23T09:11:55.833Z,14.78
2022-10-23T09:16:46.953Z,14.70
2022-10-23T09:20:49.689Z,14.65
2022-10-23T09:24:53.811Z,14.67
2022-10-23T09:29:14.465Z,14.76
2022-10-23T09:33:17.735Z,14.87
2022-10-23T09:37:26.093Z,14.92
2022-10-23T09:41:34.566Z,15.01
2022-10-23T09:45:38.652Z,15.10
2022-10-23T09:49:48.902Z,15.16
2022-10-23T09:53:50.558Z,15.23
2022-10-23T09:57:54.450Z,15.42
2022-10-23T10:02:00.002Z,15.61
2022-10-23T10:06:30.961Z,15.77
2022-10-23T10:10:43.608Z,15.82
2022-10-23T10:15:11.174Z,15.95
2022-10-23T10:19:28.414Z,16.05
2022-10-23T10:23:40.069Z,16.12
2022-10-23T10:28:13.019Z,16.09
2022-10-23T10:32:44.321Z,16.02
2022-10-23T10:36:51.426Z,15.92
2022-10-23T10:41:18.310Z,15.83
2022-10-23T10:45:33.907Z,15.81
2022-10-23T10:50:02.210Z,15.83
2022-10-23T10:54:27.926Z,15.92
2022-10-23T10:58:47.778Z,16.12
2022-10-23T11:02:57.365Z,16.29
2022-10-23T11:07:06.752Z,16.32
2022-10-23T11:11:20.971Z,16.34
2022-10-23T11:15:34.212Z,16.31
2022-10-23T11:19:43.131Z,16.26
2022-10-23T11:24:06.583Z,16.20
2022-10-23T11:28:23.900Z,16.16
2022-10-23T11:33:06.624Z,16.20
2022-10-23T11:37:08.918Z,16.29
2022-10-23T11:41:26.737Z,16.33
2022-10-23T11:45:37.718Z,16.33
2022-10-23T11:49:39.633Z,16.43
2022-10-23T11:53:41.579Z,16.59
2022-10-23T11:58:09.157Z,16.59
2022-10-23T12:02:24.062Z,16.55
2022-10-23T12:06:48.331Z,16.59
2022-10-23T12:10:52.451Z,16.61
2022-10-23T12:15:18.402Z,16.59
2022-10-23T12:19:23.166Z,16.59
2022-10-23T12:23:50.145Z,16.61
2022-10-23T12:28:45.618Z,16.66
2022-10-23T12:32:54.779Z,16.74
2022-10-23T12:37:14.744Z,16.83
2022-10-23T12:41:28.128Z,16.86
2022-10-23T12:45:36.391Z,16.81
2022-10-23T12:49:38.137Z,16.78
2022-10-23T12:53:40.110Z,16.76
2022-10-23T12:57:43.866Z,16.74
2022-10-23T13:01:50.445Z,16.70
2022-10-23T13:05:58.285Z,16.66
2022-10-23T13:10:01.388Z,16.62
2022-10-23T13:14:14.155Z,16.56
2022-10-23T13:18:17.152Z,16.50
2022-10-23T13:22:21.885Z,16.43
2022-10-23T13:26:35.495Z,16.43
2022-10-23T13:30:42.333Z,16.44
2022-10-23T13:35:03.552Z,16.40
2022-10-23T13:39:09.268Z,16.32
2022-10-23T13:43:15.973Z,16.26
2022-10-23T13:47:18.110Z,16.21
2022-10-23T13:51:28.715Z,16.20
2022-10-23T13:55:31.203Z,16.18
2022-10-23T13:59:33.112Z,16.17
2022-10-23T14:03:35.024Z,16.18
2022-10-23T14:07:39.297Z,16.16
2022-10-23T14:11:41.244Z,16.12
2022-10-23T14:15:43.077Z,16.12
2022-10-23T14:19:45.376Z,16.12
2022-10-23T14:23:48.976Z,16.10
2022-10-23T14:27:50.929Z,16.08
2022-10-23T14:31:53.455Z,16.06
2022-10-23T14:35:55.363Z,16.05
2022-10-23T14:39:57.398Z,16.02
2022-10-23T14:43:59.368Z,15.92
2022-10-23T14:48:02.069Z,15.83
2022-10-23T14:52:04.633Z,15.75
2022-10-23T14:56:06.896Z,15.66
2022-10-23T15:00:09.504Z,15.54
2022-10-23T15:04:11.472Z,15.40
2022-10-23T15:08:13.488Z,15.31
2022-10-23T15:12:15.459Z,15.25
2022-10-23T15:16:17.912Z,15.20
2022-10-23T15:20:19.857Z,15.13
2022-10-23T15:24:22.083Z,15.02
2022-10-23T15:28:24.658Z,14.94
2022-10-23T15:32:26.556Z,14.87
2022-10-23T15:36:28.487Z,14.80
2022-10-23T15:40:30.326Z,14.71
2022-10-23T15:44:33.386Z,14.60
2022-10-23T15:48:35.292Z,14.49
2022-10-23T15:52:37.220Z,14.40
2022-10-23T15:56:39.201Z,14.27
2022-10-23T16:00:41.086Z,14.12
2022-10-23T16:04:42.927Z,13.91
2022-10-23T16:08:46.146Z,13.70
2022-10-23T16:12:48.405Z,13.57
2022-10-23T16:16:50.885Z,13.47
2022-10-23T16:20:55.131Z,13.38
2022-10-23T16:24:57.075Z,13.21
2022-10-23T16:29:05.268Z,13.13
2022-10-23T16:33:07.516Z,13.07
2022-10-23T16:37:09.518Z,13.03
2022-10-23T16:41:35.584Z,12.98
2022-10-23T16:45:39.291Z,12.90
2022-10-23T16:49:41.428Z,12.83
2022-10-23T16:53:44.219Z,12.79
2022-10-23T16:57:46.165Z,12.78
2022-10-23T17:01:48.202Z,12.82
2022-10-23T17:05:50.721Z,12.84
2022-10-23T17:09:52.575Z,12.77
2022-10-23T17:14:11.625Z,12.58
2022-10-23T17:18:13.546Z,12.39
2022-10-23T17:22:15.837Z,12.26
2022-10-23T17:26:21.339Z,12.10
2022-10-23T17:30:23.323Z,11.93
2022-10-23T17:34:25.369Z,11.80
2022-10-23T17:38:27.239Z,11.67
2022-10-23T17:42:29.176Z,11.58
2022-10-23T17:46:31.256Z,11.47
2022-10-23T17:50:33.217Z,11.39
2022-10-23T17:54:35.801Z,11.39
2022-10-23T17:58:37.880Z,11.43
2022-10-23T18:02:39.834Z,11.42
2022-10-23T18:06:50.727Z,11.33
2022-10-23T18:10:52.723Z,11.21
2022-10-23T18:14:55.862Z,11.12
2022-10-23T18:18:59.623Z,10.99
2022-10-23T18:23:01.494Z,10.87
2022-10-23T18:27:03.488Z,10.77
2022-10-23T18:31:08.128Z,10.66
2022-10-23T18:35:10.023Z,10.55
2022-10-23T18:39:15.281Z,10.55
2022-10-23T18:43:31.300Z,10.58
2022-10-23T18:47:39.143Z,10.56
2022-10-23T18:51:41.349Z,10.44
2022-10-23T18:55:51.337Z,10.35
2022-10-23T18:59:55.980Z,10.28
2022-10-23T19:03:59.618Z,10.21
2022-10-23T19:08:01.921Z,10.08
2022-10-23T19:12:05.556Z,10.03
2022-10-23T19:16:16.191Z,10.00
2022-10-23T19:20:20.725Z,9.93
2022-10-23T19:24:29.127Z,9.89
2022-10-23T19:28:37.582Z,9.85
2022-10-23T19:32:41.565Z,9.78
2022-10-23T19:36:43.810Z,9.63
2022-10-23T19:40:45.792Z,9.51
2022-10-23T19:44:47.829Z,9.49
2022-10-23T19:48:49.813Z,9.44
2022-10-23T19:52:51.796Z,9.43
2022-10-23T19:56:55.623Z,9.35
2022-10-23T20:00:57.801Z,9.29
2022-10-23T20:04:59.999Z,9.16
2022-10-23T20:09:07.489Z,8.99
2022-10-23T20:13:19.326Z,8.89
2022-10-23T20:17:22.808Z,8.87
2022-10-23T20:21:25.139Z,8.84
2022-10-23T20:25:27.114Z,8.82
2022-10-23T20:29:29.407Z,8.80
2022-10-23T20:33:31.400Z,8.71
2022-10-23T20:37:33.335Z,8.59
2022-10-23T20:41:36.843Z,8.48
2022-10-23T20:45:38.790Z,8.43
2022-10-23T20:49:40.749Z,8.36
2022-10-23T20:53:43.934Z,8.23
2022-10-23T20:57:46.349Z,8.13
2022-10-23T21:01:50.816Z,8.10
2022-10-23T21:05:52.894Z,8.10
2022-10-23T21:09:55.208Z,8.12
2022-10-23T21:13:59.503Z,8.19
2022-10-23T21:18:08.019Z,8.20
2022-10-23T21:22:21.417Z,8.13
2022-10-23T21:26:24.181Z,8.08
2022-10-23T21:30:26.119Z,8.07
2022-10-23T21:34:28.515Z,8.02
2022-10-23T21:38:30.542Z,7.95
2022-10-23T21:42:33.191Z,7.94
2022-10-23T21:46:36.761Z,7.91
2022-10-23T21:50:38.925Z,7.85
2022-10-23T21:54:41.001Z,7.78
2022-10-23T21:58:43.039Z,7.71
2022-10-23T22:02:45.506Z,7.67
2022-10-23T22:06:49.501Z,7.61
2022-10-23T22:10:51.420Z,7.56
2022-10-23T22:14:53.351Z,7.59
2022-10-23T22:18:55.333Z,7.55
2022-10-23T22:22:57.409Z,7.51
2022-10-23T22:26:59.433Z,7.47
2022-10-23T22:31:01.759Z,7.46
2022-10-23T22:35:04.043Z,7.49
2022-10-23T22:39:08.189Z,7.49
2022-10-23T22:43:10.161Z,7.48
2022-10-23T22:47:12.148Z,7.42
2022-10-23T22:51:17.213Z,7.32
2022-10-23T22:55:19.177Z,7.31
2022-10-23T22:59:21.135Z,7.30
2022-10-23T23:03:23.102Z,7.28
2022-10-23T23:07:25.144Z,7.24
2022-10-23T23:11:27.955Z,7.16
2022-10-23T23:15:30.148Z,7.11
2022-10-23T23:19:32.676Z,6.99
2022-10-23T23:23:34.691Z,6.92
2022-10-23T23:27:36.767Z,6.94
2022-10-23T23:31:39.163Z,6.89
2022-10-23T23:35:43.478Z,6.90
2022-10-23T23:39:45.513Z,6.91
2022-10-23T23:43:48.225Z,6.93
2022-10-23T23:47:50.171Z,6.81
2022-10-23T23:51:52.213Z,6.82
2022-10-23T23:55:54.304Z,6.83
2022-10-23T23:59:56.510Z,6.77
